Time;durP1;ratioP1;P1;durP2;ratioP2;P2;SDS_P1;SDS_P2;PMS_P1;PMS_P2;Temp;Humidity;BMP_temperature;BMP_pressure;BME280_temperature;BME280_humidity;BME280_pressure;Samples;Min_cycle;Max_cycle;Signal;HPM_P1;HPM_P2
2020/12/29 00:01:00;;;;;;;;;3.50;2.25;;;;;10.89;52.52;95553.59;6050104;22;103326;-82
2020/12/29 00:03:27;;;;;;;;;2.00;2.00;;;;;10.86;52.41;95550.63;6076064;22;102414;-82
2020/12/29 00:05:54;;;;;;;;;2.50;2.00;;;;;10.88;52.36;95538.47;6058626;22;102079;-83
2020/12/29 00:08:23;;;;;;;;;2.00;2.00;;;;;10.90;52.65;95547.09;6051098;22;102324;-82
2020/12/29 00:10:49;;;;;;;;;2.00;2.00;;;;;10.84;52.67;95533.88;6060332;22;102901;-82
2020/12/29 00:13:17;;;;;;;;;1.75;1.25;;;;;10.87;52.45;95531.44;6025482;22;102331;-82
2020/12/29 00:15:44;;;;;;;;;2.25;2.25;;;;;10.89;52.54;95542.78;6071478;22;102389;-83
2020/12/29 00:18:10;;;;;;;;;2.25;2.00;;;;;10.85;52.18;95524.69;6094548;22;102368;-83
2020/12/29 00:20:37;;;;;;;;;3.00;3.00;;;;;10.87;52.41;95528.72;6045788;22;102397;-82
2020/12/29 00:23:04;;;;;;;;;2.00;2.00;;;;;10.85;52.79;95533.59;6068430;22;101940;-82
2020/12/29 00:25:31;;;;;;;;;1.50;1.50;;;;;10.88;52.49;95541.16;6066558;22;102248;-82
2020/12/29 00:27:57;;;;;;;;;2.75;2.00;;;;;10.89;52.61;95534.69;6042476;22;102424;-82
2020/12/29 00:30:24;;;;;;;;;2.00;1.25;;;;;10.82;52.13;95527.94;6099225;22;103321;-82
2020/12/29 00:32:51;;;;;;;;;4.00;2.00;;;;;10.86;53.14;95521.69;6074611;22;102280;-82
2020/12/29 00:35:18;;;;;;;;;2.50;2.50;;;;;10.87;52.47;95530.63;6066596;22;101946;-82
2020/12/29 00:37:45;;;;;;;;;2.00;2.00;;;;;10.87;52.69;95525.22;6041369;22;101939;-82
2020/12/29 00:40:12;;;;;;;;;1.00;1.00;;;;;10.86;52.75;95523.59;6076730;22;107942;-82
2020/12/29 00:42:39;;;;;;;;;1.00;1.00;;;;;10.88;52.39;95522.25;6073881;22;102376;-82
2020/12/29 00:45:06;;;;;;;;;2.00;2.00;;;;;10.82;52.67;95517.13;6076067;22;102426;-83
2020/12/29 00:47:33;;;;;;;;;1.00;1.00;;;;;10.85;52.54;95511.19;6081179;22;102159;-82
2020/12/29 00:50:00;;;;;;;;;2.75;2.00;;;;;10.83;52.57;95510.66;6076348;22;102871;-82
2020/12/29 00:52:27;;;;;;;;;2.00;2.00;;;;;10.88;52.58;95516.03;6074595;22;102377;-82
2020/12/29 00:54:53;;;;;;;;;2.75;2.00;;;;;10.87;52.53;95512.50;6073877;22;102300;-82
2020/12/29 00:57:20;;;;;;;;;2.00;1.00;;;;;10.87;52.57;95503.59;6069862;22;102315;-82
2020/12/29 00:59:47;;;;;;;;;1.00;1.00;;;;;10.86;52.49;95491.16;6075003;22;103147;-82
2020/12/29 01:02:14;;;;;;;;;1.25;1.25;;;;;10.89;52.45;95493.31;6048041;22;101979;-82
2020/12/29 01:04:41;;;;;;;;;3.00;2.00;;;;;10.87;52.42;95496.28;6049555;22;102018;-83
2020/12/29 01:07:07;;;;;;;;;3.25;2.50;;;;;10.92;52.20;95484.66;6059320;22;102394;-82
2020/12/29 01:09:34;;;;;;;;;2.00;2.00;;;;;10.92;52.48;95482.75;6065603;22;103834;-82
2020/12/29 01:12:01;;;;;;;;;1.00;1.00;;;;;10.91;52.29;95475.72;6046213;22;102312;-83
2020/12/29 01:14:41;;;;;;;;;2.50;2.25;;;;;10.90;52.15;95467.88;6017275;22;102389;-83
2020/12/29 01:17:16;;;;;;;;;1.50;1.00;;;;;10.92;52.41;95457.63;5967009;22;102134;-83
2020/12/29 01:19:52;;;;;;;;;1.25;1.00;;;;;10.89;52.51;95458.19;5985060;22;107670;-82
2020/12/29 01:22:30;;;;;;;;;2.00;2.00;;;;;10.89;52.33;95459.00;6007800;22;103541;-83
2020/12/29 01:25:08;;;;;;;;;1.50;1.50;;;;;10.93;52.24;95462.75;6017875;22;102026;-83
2020/12/29 01:27:40;;;;;;;;;2.00;2.00;;;;;10.95;51.99;95462.44;6020682;22;102433;-82
2020/12/29 01:30:07;;;;;;;;;1.50;1.25;;;;;10.90;52.67;95448.97;6014277;22;103365;-83
2020/12/29 01:32:38;;;;;;;;;1.75;1.75;;;;;10.91;52.23;95461.41;6012516;22;102439;-82
2020/12/29 01:35:06;;;;;;;;;2.75;1.00;;;;;10.89;52.09;95456.28;5976275;22;102382;-83
2020/12/29 01:37:33;;;;;;;;;1.00;1.00;;;;;10.88;52.07;95457.38;5995561;22;102303;-83
2020/12/29 01:40:05;;;;;;;;;1.00;1.00;;;;;10.91;52.09;95450.59;6025788;22;105392;-83
2020/12/29 01:42:41;;;;;;;;;1.00;1.00;;;;;10.93;52.40;95451.13;5924231;22;102406;-83
2020/12/29 01:45:23;;;;;;;;;1.75;1.00;;;;;10.88;52.47;95451.97;6007514;22;102398;-83
2020/12/29 01:47:56;;;;;;;;;1.00;1.00;;;;;10.87;51.89;95433.31;5944052;22;102215;-83
2020/12/29 01:50:24;;;;;;;;;0.50;0.50;;;;;10.94;52.77;95447.34;6033895;22;103039;-83
2020/12/29 01:53:00;;;;;;;;;2.00;2.00;;;;;10.89;52.23;95429.25;5959224;22;102156;-82
2020/12/29 01:55:30;;;;;;;;;1.75;1.75;;;;;10.87;52.72;95427.91;6009614;22;102346;-83
2020/12/29 01:58:00;;;;;;;;;3.00;3.00;;;;;10.85;52.42;95425.47;5991835;22;102305;-82
2020/12/29 02:00:27;;;;;;;;;2.00;1.75;;;;;10.92;52.45;95447.63;5993350;22;103220;-82
2020/12/29 02:02:56;;;;;;;;;2.00;2.00;;;;;10.85;52.39;95420.06;6022347;22;101964;-83
2020/12/29 02:05:26;;;;;;;;;1.00;0.50;;;;;10.86;52.57;95429.81;6038510;22;103727;-82
2020/12/29 02:07:54;;;;;;;;;1.00;1.00;;;;;10.85;52.00;95430.09;6033692;22;102274;-83
2020/12/29 02:10:21;;;;;;;;;1.25;1.00;;;;;10.89;52.31;95436.56;5965380;22;102740;-82
2020/12/29 02:12:48;;;;;;;;;2.00;1.00;;;;;10.87;52.24;95439.53;6003654;22;102429;-82
2020/12/29 02:15:18;;;;;;;;;2.00;1.00;;;;;10.94;52.08;95447.34;5988249;22;102483;-83
2020/12/29 02:17:45;;;;;;;;;0.75;0.75;;;;;10.93;52.57;95445.72;6042077;22;102332;-83
2020/12/29 02:20:12;;;;;;;;;0.75;0.75;;;;;10.91;52.20;95446.00;6005159;22;108789;-82
2020/12/29 02:22:39;;;;;;;;;1.00;1.00;;;;;10.86;52.27;95423.59;6054355;22;102312;-83
2020/12/29 02:25:07;;;;;;;;;2.00;2.00;;;;;10.87;52.05;95417.91;6052664;22;102467;-83
2020/12/29 02:27:47;;;;;;;;;1.50;1.50;;;;;10.92;52.30;95436.00;6051966;22;102357;-82
2020/12/29 02:30:17;;;;;;;;;2.50;1.00;;;;;10.89;52.23;95414.94;6010284;22;107295;-83
2020/12/29 02:32:45;;;;;;;;;1.75;1.00;;;;;10.86;52.33;95410.88;5960690;22;101980;-83
2020/12/29 02:35:14;;;;;;;;;2.00;1.00;;;;;10.87;51.94;95417.91;5962724;22;102584;-82
2020/12/29 02:37:42;;;;;;;;;1.50;1.00;;;;;10.85;52.31;95411.97;6022428;22;102458;-83
2020/12/29 02:40:09;;;;;;;;;1.25;1.00;;;;;10.83;52.55;95424.16;5950950;22;102978;-82
2020/12/29 02:42:37;;;;;;;;;1.00;1.00;;;;;10.90;51.98;95421.94;6011573;22;103685;-83
2020/12/29 02:45:06;;;;;;;;;1.75;1.00;;;;;10.85;52.60;95409.25;6044488;22;102405;-83
2020/12/29 02:47:37;;;;;;;;;0.00;0.00;;;;;10.87;52.06;95399.00;6035776;22;102173;-82
2020/12/29 02:50:08;;;;;;;;;1.00;1.00;;;;;10.87;52.23;95400.88;5974392;22;102866;-82
2020/12/29 02:52:38;;;;;;;;;0.75;0.75;;;;;10.88;52.59;95405.22;5974020;22;102000;-82
2020/12/29 02:55:05;;;;;;;;;1.00;1.00;;;;;10.85;52.24;95394.97;6005905;22;102510;-83
2020/12/29 02:57:35;;;;;;;;;1.00;1.00;;;;;10.85;52.05;95392.28;6023270;22;102370;-83
2020/12/29 03:00:06;;;;;;;;;1.00;1.00;;;;;10.87;52.18;95400.88;5903095;22;103317;-82
2020/12/29 03:02:33;;;;;;;;;1.00;1.00;;;;;10.83;52.59;95389.03;6036162;22;102067;-83
2020/12/29 03:05:03;;;;;;;;;1.00;1.00;;;;;10.89;52.26;95399.53;5988192;22;101884;-83
2020/12/29 03:07:35;;;;;;;;;2.00;2.00;;;;;10.84;52.13;95390.66;6008124;22;102103;-83
2020/12/29 03:10:09;;;;;;;;;0.00;0.00;;;;;10.85;52.54;95392.28;5954458;22;104139;-82
2020/12/29 03:12:41;;;;;;;;;2.00;1.00;;;;;10.88;51.98;95380.88;6004703;22;102387;-82
2020/12/29 03:15:08;;;;;;;;;1.00;1.00;;;;;10.86;52.27;95393.84;6028945;22;102255;-83
2020/12/29 03:17:39;;;;;;;;;3.00;1.00;;;;;10.88;51.94;95386.28;5970098;22;102298;-83
2020/12/29 03:20:12;;;;;;;;;1.00;1.00;;;;;10.92;51.99;95396.25;5812377;22;103250;-83
2020/12/29 03:22:41;;;;;;;;;1.00;1.00;;;;;10.84;52.83;95380.66;5975231;22;102987;-82
2020/12/29 03:25:08;;;;;;;;;1.00;1.00;;;;;10.90;51.96;95376.81;5965868;22;102319;-83
2020/12/29 03:27:38;;;;;;;;;1.00;1.00;;;;;10.87;51.94;95360.34;5958995;22;104805;-83
2020/12/29 03:30:08;;;;;;;;;1.00;1.00;;;;;10.85;52.24;95371.44;5875381;22;105105;-82
2020/12/29 03:32:35;;;;;;;;;0.00;0.00;;;;;10.87;52.16;95371.97;5928988;22;102351;-82
2020/12/29 03:35:05;;;;;;;;;2.00;1.00;;;;;10.83;52.16;95359.28;5916035;22;102625;-83
2020/12/29 03:37:35;;;;;;;;;1.00;1.00;;;;;10.84;52.03;95350.09;5847121;22;102433;-83
2020/12/29 03:40:09;;;;;;;;;0.00;0.00;;;;;10.84;52.12;95347.41;5906980;22;103360;-83
2020/12/29 03:42:41;;;;;;;;;2.00;1.25;;;;;10.83;51.96;95341.19;5937942;22;102336;-81
2020/12/29 03:45:14;;;;;;;;;0.00;0.00;;;;;10.82;52.38;95339.56;5952762;22;103718;-83
2020/12/29 03:47:40;;;;;;;;;1.00;0.25;;;;;10.81;52.55;95334.47;5961850;22;103955;-82
2020/12/29 03:50:09;;;;;;;;;1.00;1.00;;;;;10.84;52.15;95336.59;5929543;22;103691;-83
2020/12/29 03:52:39;;;;;;;;;0.25;0.25;;;;;10.83;52.29;95337.69;5857973;22;102458;-83
2020/12/29 03:55:09;;;;;;;;;1.00;1.00;;;;;10.85;52.29;95339.00;5824264;22;103464;-83
2020/12/29 03:57:37;;;;;;;;;1.00;1.00;;;;;10.83;52.45;95330.38;5919204;22;101998;-83
2020/12/29 04:00:07;;;;;;;;;1.00;1.00;;;;;10.86;52.54;95334.41;5873508;22;103211;-83
2020/12/29 04:02:37;;;;;;;;;0.00;0.00;;;;;10.90;52.21;95332.75;5969026;22;101950;-83
2020/12/29 04:05:08;;;;;;;;;0.75;0.75;;;;;10.88;52.36;95332.22;5950479;22;102500;-83
2020/12/29 04:07:36;;;;;;;;;0.50;0.50;;;;;10.83;52.63;95313.34;5976609;22;102306;-83
2020/12/29 04:10:05;;;;;;;;;1.25;1.00;;;;;10.81;52.08;95323.66;5883216;22;103453;-83
2020/12/29 04:12:39;;;;;;;;;0.75;0.75;;;;;10.84;52.36;95325.78;5880668;22;102335;-83
2020/12/29 04:15:14;;;;;;;;;0.00;0.00;;;;;10.84;52.40;95321.19;5758082;22;104235;-83
2020/12/29 04:17:50;;;;;;;;;1.00;1.00;;;;;10.90;52.28;95327.34;5783859;22;102279;-83
2020/12/29 04:20:18;;;;;;;;;0.25;0.00;;;;;10.88;52.30;95343.84;5994670;22;108007;-83
2020/12/29 04:22:45;;;;;;;;;1.00;1.00;;;;;10.90;52.38;95340.84;6007453;22;102019;-83
2020/12/29 04:25:12;;;;;;;;;0.75;0.75;;;;;10.88;52.13;95332.22;5946596;22;103313;-82
2020/12/29 04:27:41;;;;;;;;;0.00;0.00;;;;;10.95;52.06;95338.09;6025551;22;102314;-83
2020/12/29 04:30:09;;;;;;;;;0.25;0.00;;;;;11.01;52.33;95342.41;6029323;22;103260;-83
2020/12/29 04:32:40;;;;;;;;;1.00;0.75;;;;;11.03;52.15;95340.22;6031152;22;102163;-83
2020/12/29 04:35:07;;;;;;;;;1.00;1.00;;;;;11.05;52.13;95333.44;6045636;22;102353;-83
2020/12/29 04:37:34;;;;;;;;;1.00;1.00;;;;;11.12;52.10;95341.22;6023010;22;102338;-83
2020/12/29 04:40:02;;;;;;;;;0.00;0.00;;;;;11.18;52.42;95348.19;6044286;22;103239;-83
2020/12/29 04:42:29;;;;;;;;;1.50;1.00;;;;;11.21;51.88;95341.41;6014502;22;107628;-83
2020/12/29 04:44:56;;;;;;;;;0.00;0.00;;;;;11.21;52.15;95341.41;6034590;22;102507;-83
2020/12/29 04:47:28;;;;;;;;;0.00;0.00;;;;;11.24;51.69;95344.34;6004774;22;102354;-83
2020/12/29 04:49:55;;;;;;;;;0.00;0.00;;;;;11.27;51.73;95338.38;6031536;22;103311;-83
2020/12/29 04:52:22;;;;;;;;;0.00;0.00;;;;;11.31;51.99;95344.81;6040436;22;102363;-83
2020/12/29 04:54:51;;;;;;;;;0.00;0.00;;;;;11.32;52.23;95349.13;6043962;22;102344;-82
2020/12/29 04:57:18;;;;;;;;;2.00;0.00;;;;;11.32;51.80;95343.72;6027036;22;102289;-83
2020/12/29 04:59:45;;;;;;;;;0.00;0.00;;;;;11.32;52.04;95346.44;6048080;22;107277;-83
2020/12/29 05:02:12;;;;;;;;;0.00;0.00;;;;;11.39;51.72;95354.22;6041494;22;102342;-83
2020/12/29 08:05:34;;;;;;;;;0.00;0.00;;;;;11.18;53.55;95959.38;4585264;28;102755;-83
2020/12/29 08:20:25;;;;;;;;;1.00;0.00;;;;;11.14;52.94;95979.94;4869116;27;102344;-83
2020/12/29 08:23:30;;;;;;;;;1.00;0.00;;;;;11.17;52.55;95980.19;4445497;28;426302;-83
2020/12/29 08:26:50;;;;;;;;;1.00;0.25;;;;;11.21;52.22;95988.59;4591841;28;107473;-83
2020/12/29 08:29:57;;;;;;;;;;;;;;;;;;;;;
2020/12/29 08:48:28;;;;;;;;;;;;;;;;;;;;;
2020/12/29 08:51:46;;;;;;;;;0.75;0.75;;;;;11.19;52.48;96058.38;4121234;28;7158950;-83
2020/12/29 08:54:16;;;;;;;;;0.25;0.25;;;;;11.25;52.48;96060.03;4656880;28;104560;-83
2020/12/29 08:56:43;;;;;;;;;0.00;0.00;;;;;11.20;52.37;96051.88;4779382;28;103241;-83
2020/12/29 08:59:19;;;;;;;;;3.00;1.00;;;;;11.26;52.66;96079.78;4711329;28;103615;-83
2020/12/29 09:01:54;;;;;;;;;0.00;0.00;;;;;11.20;52.19;96078.94;4705953;28;102568;-83
2020/12/29 09:04:39;;;;;;;;;0.50;0.50;;;;;11.25;52.52;96086.25;4728478;28;107729;-82
2020/12/29 09:07:09;;;;;;;;;1.00;1.00;;;;;11.28;52.64;96083.00;4717675;28;102739;-82
2020/12/29 09:09:58;;;;;;;;;0.00;0.00;;;;;11.24;51.77;96092.72;4797548;28;103670;-82
2020/12/29 09:12:38;;;;;;;;;1.50;1.50;;;;;11.31;52.43;96115.72;4653392;28;102432;-82
2020/12/29 09:15:31;;;;;;;;;0.00;0.00;;;;;11.22;51.95;96106.50;4639305;28;103324;-82
2020/12/29 09:18:17;;;;;;;;;1.00;1.00;;;;;11.28;52.20;96135.22;3729205;28;10443027;-82
2020/12/29 09:31:43;;;;;;;;;1.25;1.00;;;;;11.26;52.41;96144.69;4847062;27;102576;-83
2020/12/29 09:34:10;;;;;;;;;1.50;1.00;;;;;11.25;52.16;96149.28;4848075;27;102526;-83
2020/12/29 09:36:41;;;;;;;;;0.00;0.00;;;;;11.25;52.22;96156.56;4807784;27;103999;-83
2020/12/29 09:39:11;;;;;;;;;0.50;0.00;;;;;11.27;52.10;96143.59;4854375;27;102545;-82
2020/12/29 09:42:16;;;;;;;;;1.00;0.00;;;;;11.31;52.14;96150.91;4646941;27;103567;-82
2020/12/29 09:51:59;;;;;;;;;1.25;0.00;;;;;11.35;51.82;96170.13;4679380;28;102796;-83
2020/12/29 09:54:37;;;;;;;;;1.00;1.00;;;;;11.35;51.87;96181.75;4632236;28;108741;-82
2020/12/29 09:57:10;;;;;;;;;0.75;0.00;;;;;11.36;51.65;96194.22;4747587;27;102631;-82
2020/12/29 09:59:47;;;;;;;;;;;;;;;;;;;;;
2020/12/29 10:09:59;;;;;;;;;1.75;1.00;;;;;11.43;51.95;96188.56;4757683;27;103275;-81
2020/12/29 10:13:17;;;;;;;;;1.00;1.00;;;;;11.43;52.05;96197.50;4694469;27;102919;-81
2020/12/29 10:15:54;;;;;;;;;0.00;0.00;;;;;11.41;52.18;96196.13;4494909;29;103608;-81
2020/12/29 10:56:17;;;;;;;;;1.50;1.00;;;;;11.48;52.09;96267.84;5943615;22;6539032;-77
2020/12/29 10:59:14;;;;;;;;;0.50;0.00;;;;;11.54;51.94;96279.53;5621651;23;102436;-77
2020/12/29 11:21:19;;;;;;;;;;;;;;;;;;;;;
2020/12/29 11:41:07;;;;;;;;;1.00;1.00;;;;;11.70;50.41;96329.16;6056512;22;1167492;-80
2020/12/29 12:16:00;;;;;;;;;3.00;1.00;;;;;11.90;50.80;96378.81;5562210;22;11909635;-83
2020/12/29 12:33:59;;;;;;;;;;;;;;;;;;;;;
2020/12/29 14:24:39;;;;;;;;;1.00;1.00;;;;;12.38;50.35;96548.38;4723688;27;103892;-83
2020/12/29 14:27:23;;;;;;;;;1.00;1.00;;;;;12.43;50.79;96558.44;4694080;27;104380;-82
2020/12/29 14:30:14;;;;;;;;;1.25;0.75;;;;;12.43;50.68;96561.97;4581572;27;103951;-82
2020/12/29 14:32:58;;;;;;;;;2.00;1.00;;;;;12.41;49.88;96558.72;4692202;28;102599;-83
2020/12/29 14:35:43;;;;;;;;;1.25;1.00;;;;;12.44;50.76;96579.84;4539391;28;102644;-82
2020/12/29 14:39:09;;;;;;;;;2.00;1.00;;;;;12.45;50.05;96581.50;4567663;28;109920;-83
2020/12/29 14:41:39;;;;;;;;;2.00;1.00;;;;;12.38;50.39;96564.63;4745043;28;102480;-83
2020/12/29 14:50:58;;;;;;;;;2.80;1.80;;;;;12.32;50.81;96567.59;4128033;27;18065262;-81
2020/12/29 15:14:54;;;;;;;;;;;;;;;;;;;;;
2020/12/29 17:06:14;;;;;;;;;6.25;4.50;;;;;11.79;51.78;96771.63;5090096;22;17890131;-83
2020/12/29 17:24:23;;;;;;;;;12.00;8.25;;;;;11.78;51.99;96778.94;4686240;22;21129244;-84
2020/12/29 17:55:37;;;;;;;;;5.25;5.25;;;;;11.70;51.98;96827.28;4794173;27;102306;-81
2020/12/29 17:58:10;;;;;;;;;8.75;7.00;;;;;11.64;51.92;96821.78;4686147;27;103186;-83
2020/12/29 18:01:14;;;;;;;;;8.25;6.00;;;;;11.72;51.50;96833.25;4565909;28;103918;-84
2020/12/29 18:04:34;;;;;;;;;;;;;;;;;;;;;
2020/12/29 18:08:05;;;;;;;;;;;;;;;;;;;;;
2020/12/29 18:11:29;;;;;;;;;10.00;6.50;;;;;11.67;51.88;96842.13;4791238;28;102464;-85
2020/12/29 18:13:59;;;;;;;;;8.75;6.75;;;;;11.64;51.79;96838.03;4661403;28;103178;-84
2020/12/29 18:16:26;;;;;;;;;11.75;8.25;;;;;11.64;52.08;96843.44;4791702;28;104288;-84
2020/12/29 18:18:58;;;;;;;;;7.25;6.75;;;;;11.67;51.69;96852.94;4819653;28;102702;-85
2020/12/29 18:21:28;;;;;;;;;7.25;6.00;;;;;11.70;51.66;96857.06;4800958;28;102507;-86
2020/12/29 18:23:55;;;;;;;;;12.00;9.50;;;;;11.64;51.88;96861.56;4771823;28;103894;-82
2020/12/29 18:26:30;;;;;;;;;9.25;5.75;;;;;11.67;51.79;96874.59;4706797;28;109226;-83
2020/12/29 18:28:59;;;;;;;;;9.75;7.75;;;;;11.66;51.93;96864.03;4479089;28;4042309;-83
2020/12/29 18:31:30;;;;;;;;;10.00;7.00;;;;;11.66;51.71;96870.28;4704129;28;102503;-83
2020/12/29 18:34:04;;;;;;;;;9.50;7.50;;;;;11.64;51.52;96867.81;4671271;28;102861;-84
2020/12/29 18:36:31;;;;;;;;;9.75;6.00;;;;;11.65;51.78;96890.28;4817546;28;103530;-83
2020/12/29 18:38:59;;;;;;;;;9.25;8.25;;;;;11.66;51.49;96885.69;4816807;28;103818;-83
2020/12/29 18:41:29;;;;;;;;;9.50;8.25;;;;;11.64;52.04;96884.06;4752757;28;102990;-83
2020/12/29 18:44:08;;;;;;;;;11.00;10.00;;;;;11.64;51.84;96896.75;4722285;28;102530;-82
2020/12/29 18:46:35;;;;;;;;;9.75;7.75;;;;;11.70;52.11;96903.06;4758678;28;103319;-83
2020/12/29 18:49:01;;;;;;;;;11.00;7.00;;;;;11.68;51.69;96910.63;4807175;28;102538;-83
2020/12/29 18:51:40;;;;;;;;;11.50;8.50;;;;;11.64;52.26;96913.00;4705454;28;102964;-82
2020/12/29 18:54:28;;;;;;;;;8.25;6.00;;;;;11.65;51.71;96911.94;4638917;28;107045;-83
2020/12/29 18:57:13;;;;;;;;;8.50;7.25;;;;;11.68;52.28;96927.69;4460059;28;102909;-82
2020/12/29 18:59:46;;;;;;;;;9.00;8.00;;;;;11.68;51.30;96907.91;4804636;28;102464;-82
2020/12/29 19:02:25;;;;;;;;;10.75;6.75;;;;;11.63;52.11;96920.31;4710821;28;103745;-84
2020/12/29 19:05:23;;;;;;;;;9.75;8.25;;;;;11.62;51.63;96924.06;4680745;28;102673;-77
2020/12/29 19:08:00;;;;;;;;;8.00;7.50;;;;;11.62;51.72;96918.66;4658426;28;109912;-76
2020/12/29 19:10:35;;;;;;;;;7.75;6.25;;;;;11.63;51.64;96935.72;4770434;28;103686;-75
2020/12/29 19:13:07;;;;;;;;;10.00;7.75;;;;;11.66;52.02;96934.44;4670519;28;102515;-76
2020/12/29 19:15:37;;;;;;;;;10.50;9.00;;;;;11.69;51.96;96937.44;4785488;28;102713;-76
2020/12/29 19:18:17;;;;;;;;;12.25;9.25;;;;;11.69;51.63;96936.63;4770892;28;103500;-76
2020/12/29 19:24:51;;;;;;;;;7.75;6.00;;;;;11.73;51.99;96940.50;4475884;29;103735;-76
2020/12/29 20:04:47;;;;;;;;;10.00;6.00;;;;;11.81;56.07;96988.81;3328749;23;10448599;-82
2020/12/29 20:45:37;;;;;;;;;;;;;;;;;;;;;
2020/12/29 21:13:12;;;;;;;;;13.25;11.00;;;;;11.70;53.58;97028.44;5415026;22;1244425;-78
2020/12/29 21:15:49;;;;;;;;;9.25;8.50;;;;;11.66;53.41;97030.00;5288878;24;102385;-74
2020/12/29 21:18:15;;;;;;;;;12.00;10.50;;;;;11.64;53.26;97022.13;5256470;24;102594;-74
2020/12/29 21:21:13;;;;;;;;;9.25;9.00;;;;;11.63;53.27;97016.94;5452985;24;107287;-77
2020/12/29 21:23:54;;;;;;;;;10.25;10.00;;;;;11.68;53.21;97024.31;5454471;23;102488;-76
2020/12/29 21:26:22;;;;;;;;;9.00;8.00;;;;;11.66;53.31;97027.31;5842249;23;102390;-76
2020/12/29 21:29:27;;;;;;;;;14.25;11.25;;;;;11.68;53.16;97029.75;5723172;23;102639;-77
2020/12/29 21:31:54;;;;;;;;;11.75;10.50;;;;;11.65;53.38;97031.06;5641022;23;108140;-76
2020/12/29 21:34:45;;;;;;;;;11.75;10.50;;;;;11.70;54.15;97025.75;5542186;23;102521;-83
2020/12/29 21:37:16;;;;;;;;;11.50;10.50;;;;;11.68;52.96;97022.44;5510519;23;103852;-83
2020/12/29 21:42:37;;;;;;;;;10.00;9.50;;;;;11.74;53.52;97037.75;6057716;22;103647;-83
2020/12/29 21:45:24;;;;;;;;;9.50;8.00;;;;;11.73;53.61;97044.22;6126306;22;102598;31
2020/12/29 21:48:26;;;;;;;;;11.00;9.00;;;;;11.67;53.16;97025.38;5541792;23;103771;-76
2020/12/29 21:51:07;;;;;;;;;11.00;10.00;;;;;11.64;53.64;97022.13;5617582;23;104360;-77
2020/12/29 22:16:49;;;;;;;;;21.50;21.25;;;;;13.80;64.62;97052.22;4866760;22;19322485;-77
2020/12/29 22:19:37;;;;;;;;;28.00;21.75;;;;;13.68;62.55;97064.34;5565384;22;103024;-77
2020/12/29 22:22:14;;;;;;;;;37.50;29.00;;;;;13.61;60.61;97069.13;5520246;22;103920;-76
2020/12/29 22:24:48;;;;;;;;;28.75;25.00;;;;;13.53;60.63;97069.63;5810069;22;102823;-83
2020/12/29 22:27:18;;;;;;;;;33.25;26.25;;;;;13.48;60.43;97064.94;5810401;22;105779;-83
2020/12/29 22:30:01;;;;;;;;;28.75;25.25;;;;;13.43;60.05;97058.66;5675681;22;102977;-82
2020/12/29 22:32:48;;;;;;;;;26.25;24.25;;;;;13.39;59.73;97063.78;5578479;22;103821;-82
2020/12/29 22:35:31;;;;;;;;;25.25;24.00;;;;;13.36;60.03;97067.00;5632486;22;104450;-82
2020/12/29 22:38:11;;;;;;;;;24.75;21.50;;;;;13.34;60.11;97069.16;5763263;22;108440;-83
2020/12/29 22:40:51;;;;;;;;;27.25;23.00;;;;;13.32;59.29;97066.72;5784685;22;102846;-82
2020/12/29 22:43:28;;;;;;;;;29.00;24.75;;;;;13.31;59.26;97066.97;5839825;22;102635;-83
2020/12/29 22:46:11;;;;;;;;;28.00;26.25;;;;;13.25;59.62;97068.78;5798048;22;102796;-83
2020/12/29 22:48:42;;;;;;;;;30.00;26.00;;;;;13.24;60.02;97061.72;5940901;22;103722;-82
2020/12/29 22:51:13;;;;;;;;;27.25;23.25;;;;;13.23;58.80;97079.09;5906857;22;104099;-83
2020/12/29 22:53:40;;;;;;;;;28.25;25.00;;;;;13.21;59.49;97051.38;5877901;22;102786;-82
2020/12/29 22:56:43;;;;;;;;;28.75;26.75;;;;;13.17;59.06;97044.81;5897118;22;102739;-82
2020/12/29 22:59:22;;;;;;;;;28.75;23.00;;;;;13.17;58.52;97044.81;5787689;22;109563;-82
2020/12/29 23:01:54;;;;;;;;;29.50;27.00;;;;;13.15;58.78;97051.59;5896467;22;103110;-82
2020/12/29 23:04:25;;;;;;;;;21.00;18.50;;;;;13.13;58.93;97054.56;5897610;22;102928;-82
2020/12/29 23:07:00;;;;;;;;;26.75;21.50;;;;;13.13;57.92;97051.03;5833235;22;102944;-82
2020/12/29 23:09:32;;;;;;;;;22.50;21.00;;;;;13.09;57.75;97045.25;5826105;22;108181;-82
2020/12/29 23:12:02;;;;;;;;;25.25;23.25;;;;;13.06;58.26;97064.75;5855344;22;103036;-83
2020/12/29 23:14:29;;;;;;;;;23.00;21.25;;;;;13.06;57.52;97064.75;5877718;22;102890;-82
2020/12/29 23:16:57;;;;;;;;;22.25;22.25;;;;;13.03;57.41;97026.44;5810275;23;102708;-82
2020/12/29 23:19:24;;;;;;;;;22.25;22.00;;;;;13.06;57.20;97025.97;5888985;22;109978;-82
2020/12/29 23:21:53;;;;;;;;;21.50;19.00;;;;;12.99;57.14;97026.16;5853474;22;102937;-83
2020/12/29 23:24:20;;;;;;;;;23.50;19.50;;;;;13.03;57.38;97034.59;5787904;23;102911;-82
2020/12/29 23:26:52;;;;;;;;;25.25;20.75;;;;;13.03;57.63;97054.41;5780142;22;103470;-83
2020/12/29 23:29:19;;;;;;;;;24.75;21.75;;;;;12.97;57.54;97052.69;5864528;22;104326;-83
2020/12/29 23:31:46;;;;;;;;;19.25;18.50;;;;;13.00;56.84;97038.66;5752934;23;102748;-82
2020/12/29 23:34:15;;;;;;;;;23.00;19.50;;;;;13.01;57.30;97053.03;5794033;22;102539;-81
2020/12/29 23:36:51;;;;;;;;;19.25;17.25;;;;;12.95;57.37;97061.13;5763505;22;102877;-81
2020/12/29 23:39:36;;;;;;;;;23.00;20.50;;;;;12.96;57.08;97051.09;5785858;22;105619;-82
2020/12/29 23:42:05;;;;;;;;;21.00;17.75;;;;;12.88;57.67;97041.47;5720685;22;102833;-81
2020/12/29 23:44:32;;;;;;;;;15.75;15.00;;;;;12.89;57.30;97055.88;5647872;22;102704;-83
2020/12/29 23:47:11;;;;;;;;;23.25;20.00;;;;;12.87;57.26;97055.31;5690466;22;102835;-81
2020/12/29 23:49:38;;;;;;;;;18.50;17.50;;;;;12.87;56.85;97055.31;5696098;22;104979;-83
2020/12/29 23:52:21;;;;;;;;;23.00;21.50;;;;;12.88;56.75;97073.22;5614652;23;102772;-81
2020/12/29 23:54:52;;;;;;;;;19.50;18.00;;;;;12.87;56.77;97071.59;5751734;23;102829;-83
2020/12/29 23:57:20;;;;;;;;;22.25;17.50;;;;;12.83;56.82;97057.69;5765886;22;102818;-82
2020/12/29 23:59:51;;;;;;;;;19.25;17.75;;;;;12.82;56.53;97060.69;5780482;22;103680;-82
